VCP98J SCAR-SCDA
Flight info
| Callsign | VCP98J |
|---|---|
| Flight time | 0h 29m |
| Altitude | 19000 |
| Route | LOBAG5L LOBAG LOBAG4C |
| Aircraft | E190/M-SDE3GILORVW/S |
Departure
| Time | 2026-04-21 04:24 |
|---|---|
| Airport | Chacalluta International Airport (SCAR) |
Arrival
| Time | 2026-04-21 04:53 |
|---|---|
| Airport | Diego Aracena International Airport (SCDA) |
| Time | Latitude | Longitude | Altitude | Speed | Heading |
|---|---|---|---|---|---|
| 2026-04-21 04:00 | -18.34950 | -70.33653 | 196 ft | 0 kts | 109° |
| 2026-04-21 04:16 | -18.34946 | -70.33665 | 196 ft | 2 kts | 109° |
| 2026-04-21 04:16 | -18.34940 | -70.33680 | 195 ft | 2 kts | 126° |
| 2026-04-21 04:16 | -18.34930 | -70.33691 | 194 ft | 2 kts | 140° |
| 2026-04-21 04:16 | -18.34917 | -70.33700 | 194 ft | 2 kts | 156° |
| 2026-04-21 04:17 | -18.34903 | -70.33704 | 194 ft | 2 kts | 173° |
| 2026-04-21 04:17 | -18.34887 | -70.33705 | 194 ft | 2 kts | 188° |
| 2026-04-21 04:17 | -18.34879 | -70.33703 | 194 ft | 1 kts | 198° |
| 2026-04-21 04:17 | -18.34873 | -70.33701 | 194 ft | 0 kts | 199° |
| 2026-04-21 04:19 | -18.34887 | -70.33707 | 193 ft | 5 kts | 199° |
| 2026-04-21 04:19 | -18.34944 | -70.33727 | 192 ft | 10 kts | 199° |
| 2026-04-21 04:19 | -18.34993 | -70.33732 | 192 ft | 3 kts | 99° |
| 2026-04-21 04:19 | -18.34973 | -70.33720 | 192 ft | 3 kts | 7° |
| 2026-04-21 04:20 | -18.34936 | -70.33711 | 193 ft | 6 kts | 13° |
| 2026-04-21 04:20 | -18.34886 | -70.33696 | 194 ft | 8 kts | 4° |
| 2026-04-21 04:20 | -18.34824 | -70.33681 | 195 ft | 10 kts | 18° |
| 2026-04-21 04:20 | -18.34751 | -70.33652 | 196 ft | 11 kts | 24° |
| 2026-04-21 04:21 | -18.34665 | -70.33621 | 198 ft | 14 kts | 17° |
| 2026-04-21 04:21 | -18.34563 | -70.33587 | 199 ft | 16 kts | 20° |
| 2026-04-21 04:21 | -18.34450 | -70.33546 | 201 ft | 17 kts | 21° |
| 2026-04-21 04:21 | -18.34336 | -70.33502 | 203 ft | 17 kts | 20° |
| 2026-04-21 04:22 | -18.34226 | -70.33463 | 205 ft | 16 kts | 19° |
| 2026-04-21 04:22 | -18.34120 | -70.33422 | 209 ft | 15 kts | 18° |
| 2026-04-21 04:22 | -18.34017 | -70.33409 | 210 ft | 15 kts | 345° |
| 2026-04-21 04:22 | -18.33954 | -70.33488 | 207 ft | 9 kts | 291° |
| 2026-04-21 04:23 | -18.33967 | -70.33542 | 205 ft | 9 kts | 217° |
| 2026-04-21 04:23 | -18.34100 | -70.33598 | 201 ft | 52 kts | 200° |
| 2026-04-21 04:23 | -18.34712 | -70.33826 | 187 ft | 130 kts | 199° |
| 2026-04-21 04:23 | -18.35724 | -70.34151 | 462 ft | 160 kts | 194° |
| 2026-04-21 04:24 | -18.36788 | -70.34469 | 1085 ft | 161 kts | 192° |
| 2026-04-21 04:24 | -18.37869 | -70.34570 | 1813 ft | 152 kts | 178° |
| 2026-04-21 04:24 | -18.38908 | -70.34679 | 2462 ft | 149 kts | 195° |
| 2026-04-21 04:24 | -18.39906 | -70.34787 | 3056 ft | 147 kts | 169° |
| 2026-04-21 04:25 | -18.40936 | -70.34583 | 3461 ft | 162 kts | 169° |
| 2026-04-21 04:25 | -18.42151 | -70.34383 | 3669 ft | 190 kts | 172° |
| 2026-04-21 04:25 | -18.43555 | -70.34194 | 3881 ft | 213 kts | 173° |
| 2026-04-21 04:25 | -18.45094 | -70.34017 | 4086 ft | 232 kts | 174° |
| 2026-04-21 04:26 | -18.46760 | -70.33845 | 4201 ft | 251 kts | 174° |
| 2026-04-21 04:26 | -18.48566 | -70.33673 | 4326 ft | 266 kts | 175° |
| 2026-04-21 04:26 | -18.50453 | -70.33500 | 4534 ft | 274 kts | 175° |
| 2026-04-21 04:26 | -18.52369 | -70.33328 | 4827 ft | 277 kts | 175° |
| 2026-04-21 04:27 | -18.54320 | -70.33154 | 5162 ft | 279 kts | 175° |
| 2026-04-21 04:27 | -18.56203 | -70.32988 | 5375 ft | 268 kts | 175° |
| 2026-04-21 04:27 | -18.58107 | -70.32820 | 5518 ft | 279 kts | 175° |
| 2026-04-21 04:27 | -18.60084 | -70.32571 | 5883 ft | 298 kts | 172° |
| 2026-04-21 04:28 | -18.62148 | -70.32275 | 6922 ft | 303 kts | 172° |
| 2026-04-21 04:28 | -18.64188 | -70.31986 | 8191 ft | 296 kts | 172° |
| 2026-04-21 04:28 | -18.66196 | -70.31702 | 9354 ft | 291 kts | 172° |
| 2026-04-21 04:28 | -18.68180 | -70.31420 | 10369 ft | 292 kts | 172° |
| 2026-04-21 04:29 | -18.70213 | -70.31132 | 11171 ft | 301 kts | 172° |
| 2026-04-21 04:29 | -18.72335 | -70.30830 | 11798 ft | 313 kts | 172° |
| 2026-04-21 04:29 | -18.74532 | -70.30518 | 12427 ft | 326 kts | 172° |
| 2026-04-21 04:29 | -18.76803 | -70.30196 | 13177 ft | 333 kts | 172° |
| 2026-04-21 04:30 | -18.79121 | -70.29867 | 14019 ft | 338 kts | 172° |
| 2026-04-21 04:30 | -18.81450 | -70.29536 | 14811 ft | 342 kts | 172° |
| 2026-04-21 04:30 | -18.83818 | -70.29199 | 15580 ft | 346 kts | 172° |
| 2026-04-21 04:30 | -18.86250 | -70.28854 | 16283 ft | 352 kts | 173° |
| 2026-04-21 04:31 | -18.88689 | -70.28507 | 16984 ft | 357 kts | 173° |
| 2026-04-21 04:31 | -18.91162 | -70.28155 | 17680 ft | 361 kts | 173° |
| 2026-04-21 04:31 | -18.93657 | -70.27801 | 18384 ft | 365 kts | 173° |
| 2026-04-21 04:31 | -18.96179 | -70.27441 | 19003 ft | 364 kts | 173° |
| 2026-04-21 04:32 | -18.98750 | -70.27077 | 19110 ft | 378 kts | 173° |
| 2026-04-21 04:32 | -19.01427 | -70.26711 | 19140 ft | 396 kts | 174° |
| 2026-04-21 04:32 | -19.04178 | -70.26348 | 19133 ft | 400 kts | 174° |
| 2026-04-21 04:32 | -19.06968 | -70.25982 | 19131 ft | 399 kts | 174° |
| 2026-04-21 04:33 | -19.09731 | -70.25619 | 19126 ft | 399 kts | 174° |
| 2026-04-21 04:33 | -19.12498 | -70.25255 | 19118 ft | 399 kts | 174° |
| 2026-04-21 04:33 | -19.15253 | -70.24892 | 19120 ft | 398 kts | 174° |
| 2026-04-21 04:33 | -19.18007 | -70.24530 | 19124 ft | 398 kts | 174° |
| 2026-04-21 04:34 | -19.20751 | -70.24169 | 19112 ft | 397 kts | 174° |
| 2026-04-21 04:34 | -19.23503 | -70.23807 | 19116 ft | 397 kts | 174° |
| 2026-04-21 04:34 | -19.26244 | -70.23447 | 19112 ft | 397 kts | 174° |
| 2026-04-21 04:34 | -19.28971 | -70.23086 | 19110 ft | 388 kts | 174° |
| 2026-04-21 04:35 | -19.31635 | -70.22736 | 19098 ft | 384 kts | 174° |
| 2026-04-21 04:35 | -19.34307 | -70.22385 | 19093 ft | 383 kts | 174° |
| 2026-04-21 04:35 | -19.36961 | -70.22034 | 19089 ft | 384 kts | 174° |
| 2026-04-21 04:35 | -19.39613 | -70.21685 | 18784 ft | 386 kts | 174° |
| 2026-04-21 04:36 | -19.42295 | -70.21334 | 18362 ft | 382 kts | 175° |
| 2026-04-21 04:36 | -19.44928 | -70.21394 | 18008 ft | 376 kts | 194° |
| 2026-04-21 04:36 | -19.47333 | -70.22407 | 17672 ft | 372 kts | 206° |
| 2026-04-21 04:36 | -19.49821 | -70.23131 | 17914 ft | 375 kts | 185° |
| 2026-04-21 04:37 | -19.52443 | -70.23008 | 18238 ft | 379 kts | 175° |
| 2026-04-21 04:37 | -19.55079 | -70.22729 | 18525 ft | 382 kts | 175° |
| 2026-04-21 04:37 | -19.57731 | -70.22492 | 18768 ft | 384 kts | 181° |
| 2026-04-21 04:37 | -19.60433 | -70.22501 | 18763 ft | 384 kts | 179° |
| 2026-04-21 04:38 | -19.63122 | -70.22530 | 17769 ft | 394 kts | 182° |
| 2026-04-21 04:38 | -19.65883 | -70.22459 | 16632 ft | 397 kts | 178° |
| 2026-04-21 04:38 | -19.68618 | -70.22286 | 15523 ft | 399 kts | 176° |
| 2026-04-21 04:38 | -19.71365 | -70.22088 | 14393 ft | 398 kts | 176° |
| 2026-04-21 04:39 | -19.74112 | -70.21883 | 13192 ft | 389 kts | 175° |
| 2026-04-21 04:39 | -19.76730 | -70.21683 | 12435 ft | 365 kts | 175° |
| 2026-04-21 04:39 | -19.79175 | -70.21497 | 12018 ft | 339 kts | 175° |
| 2026-04-21 04:39 | -19.81496 | -70.21320 | 11653 ft | 331 kts | 175° |
| 2026-04-21 04:40 | -19.83774 | -70.21147 | 11302 ft | 327 kts | 175° |
| 2026-04-21 04:40 | -19.86039 | -70.20974 | 10927 ft | 317 kts | 175° |
| 2026-04-21 04:40 | -19.88215 | -70.20808 | 10542 ft | 311 kts | 175° |
| 2026-04-21 04:40 | -19.90364 | -70.20644 | 10204 ft | 309 kts | 175° |
| 2026-04-21 04:41 | -19.92525 | -70.20479 | 9809 ft | 309 kts | 175° |
| 2026-04-21 04:41 | -19.94632 | -70.20317 | 9392 ft | 296 kts | 175° |
| 2026-04-21 04:41 | -19.96633 | -70.20164 | 8919 ft | 283 kts | 175° |
| 2026-04-21 04:41 | -19.98557 | -70.20018 | 8419 ft | 274 kts | 175° |
| 2026-04-21 04:42 | -20.00469 | -70.19872 | 7827 ft | 270 kts | 175° |
| 2026-04-21 04:42 | -20.02322 | -70.19730 | 7271 ft | 267 kts | 175° |
| 2026-04-21 04:42 | -20.04153 | -70.19590 | 6699 ft | 264 kts | 175° |
| 2026-04-21 04:42 | -20.05985 | -70.19449 | 6214 ft | 258 kts | 175° |
| 2026-04-21 04:43 | -20.07767 | -70.19312 | 5811 ft | 255 kts | 176° |
| 2026-04-21 04:43 | -20.09509 | -70.19179 | 5396 ft | 247 kts | 176° |
| 2026-04-21 04:43 | -20.11200 | -70.19050 | 4976 ft | 241 kts | 176° |
| 2026-04-21 04:43 | -20.12853 | -70.18923 | 4560 ft | 236 kts | 176° |
| 2026-04-21 04:44 | -20.14488 | -70.18798 | 4224 ft | 229 kts | 176° |
| 2026-04-21 04:44 | -20.16070 | -70.18677 | 4045 ft | 226 kts | 176° |
| 2026-04-21 04:44 | -20.17633 | -70.18558 | 3866 ft | 226 kts | 176° |
| 2026-04-21 04:44 | -20.19203 | -70.18438 | 3617 ft | 226 kts | 176° |
| 2026-04-21 04:45 | -20.20766 | -70.18318 | 3525 ft | 224 kts | 175° |
| 2026-04-21 04:45 | -20.22328 | -70.18198 | 3520 ft | 221 kts | 175° |
| 2026-04-21 04:45 | -20.23811 | -70.18085 | 3489 ft | 201 kts | 175° |
| 2026-04-21 04:45 | -20.25160 | -70.17982 | 3518 ft | 190 kts | 176° |
| 2026-04-21 04:46 | -20.26485 | -70.17896 | 3520 ft | 192 kts | 176° |
| 2026-04-21 04:46 | -20.27798 | -70.17790 | 3502 ft | 182 kts | 176° |
| 2026-04-21 04:46 | -20.29020 | -70.17693 | 3511 ft | 165 kts | 176° |
| 2026-04-21 04:46 | -20.30142 | -70.17606 | 3534 ft | 160 kts | 176° |
| 2026-04-21 04:47 | -20.31256 | -70.17520 | 3514 ft | 161 kts | 176° |
| 2026-04-21 04:47 | -20.32381 | -70.17433 | 3516 ft | 161 kts | 176° |
| 2026-04-21 04:47 | -20.33510 | -70.17347 | 3516 ft | 162 kts | 176° |
| 2026-04-21 04:47 | -20.34657 | -70.17249 | 3510 ft | 164 kts | 175° |
| 2026-04-21 04:48 | -20.35794 | -70.17174 | 3399 ft | 165 kts | 181° |
| 2026-04-21 04:48 | -20.36935 | -70.17247 | 3196 ft | 163 kts | 185° |
| 2026-04-21 04:48 | -20.38069 | -70.17313 | 2980 ft | 162 kts | 183° |
| 2026-04-21 04:48 | -20.39192 | -70.17373 | 2763 ft | 160 kts | 184° |
| 2026-04-21 04:49 | -20.40297 | -70.17432 | 2540 ft | 158 kts | 184° |
| 2026-04-21 04:49 | -20.41389 | -70.17490 | 2309 ft | 151 kts | 184° |
| 2026-04-21 04:49 | -20.42404 | -70.17545 | 2084 ft | 140 kts | 184° |
| 2026-04-21 04:49 | -20.43328 | -70.17593 | 1868 ft | 127 kts | 184° |
| 2026-04-21 04:50 | -20.44202 | -70.17673 | 1689 ft | 123 kts | 183° |
| 2026-04-21 04:50 | -20.45059 | -70.17714 | 1523 ft | 122 kts | 181° |
| 2026-04-21 04:50 | -20.45908 | -70.17751 | 1397 ft | 122 kts | 181° |
| 2026-04-21 04:50 | -20.46754 | -70.17807 | 1241 ft | 122 kts | 181° |
| 2026-04-21 04:51 | -20.47607 | -70.17846 | 1042 ft | 121 kts | 181° |
| 2026-04-21 04:51 | -20.48438 | -70.17863 | 896 ft | 119 kts | 182° |
| 2026-04-21 04:51 | -20.49265 | -70.17909 | 703 ft | 118 kts | 181° |
| 2026-04-21 04:51 | -20.50084 | -70.17953 | 533 ft | 117 kts | 182° |
| 2026-04-21 04:52 | -20.50899 | -70.17996 | 356 ft | 116 kts | 183° |
| 2026-04-21 04:52 | -20.51707 | -70.18029 | 222 ft | 115 kts | 182° |
| 2026-04-21 04:52 | -20.52506 | -70.18071 | 131 ft | 108 kts | 184° |
| 2026-04-21 04:52 | -20.53103 | -70.18106 | 144 ft | 60 kts | 182° |
| 2026-04-21 04:53 | -20.53436 | -70.18124 | 153 ft | 36 kts | 183° |
| 2026-04-21 04:53 | -20.53538 | -70.18123 | 156 ft | 7 kts | 150° |
| 2026-04-21 04:53 | -20.53561 | -70.18098 | 158 ft | 3 kts | 102° |
| 2026-04-21 04:53 | -20.53566 | -70.18080 | 159 ft | 1 kts | 102° |
| 2026-04-21 04:54 | -20.53567 | -70.18069 | 160 ft | 1 kts | 96° |
| 2026-04-21 04:54 | -20.53568 | -70.18058 | 161 ft | 2 kts | 92° |
| 2026-04-21 04:54 | -20.53566 | -70.18028 | 162 ft | 5 kts | 89° |
| 2026-04-21 04:54 | -20.53575 | -70.17980 | 165 ft | 7 kts | 120° |
| 2026-04-21 04:55 | -20.53609 | -70.17960 | 167 ft | 4 kts | 172° |
| 2026-04-21 04:55 | -20.53664 | -70.17961 | 169 ft | 12 kts | 182° |
| 2026-04-21 04:55 | -20.53785 | -70.17966 | 172 ft | 21 kts | 181° |
| 2026-04-21 04:55 | -20.53953 | -70.17976 | 175 ft | 24 kts | 185° |
| 2026-04-21 04:56 | -20.54116 | -70.17991 | 177 ft | 22 kts | 178° |
| 2026-04-21 04:56 | -20.54251 | -70.17991 | 180 ft | 17 kts | 176° |
| 2026-04-21 04:56 | -20.54373 | -70.18000 | 181 ft | 17 kts | 182° |
| 2026-04-21 04:56 | -20.54502 | -70.18008 | 180 ft | 19 kts | 182° |
| 2026-04-21 04:57 | -20.54602 | -70.17988 | 184 ft | 10 kts | 113° |
| 2026-04-21 04:57 | -20.54609 | -70.17927 | 187 ft | 6 kts | 94° |
| 2026-04-21 04:57 | -20.54610 | -70.17911 | 188 ft | 0 kts | 94° |